^^

..:: Metar reader and decoder ::..




OSSERVAZIONI E PREVISIONI METEOROLOGICHE DAGLI AEROPORTI ITALIANI
(messaggi METAR)

 


LIPX - Villafranca(Cv/M, Italy
Distanza dalla stazione: NNE 28km
Dati ricevuti: Mon, 22-Apr-2024 22:50
Pioviggine, Nuvoloso
Pioviggine, Nuvoloso
 Vento da O
Vento: O 9 km/h
Temperatura: 6°C
Temperatura del Vento: 4°C
P.to Rugiada: 5°C
Umidità: 93%
Barometro: 1013 hPa
Sommario: Pioviggine
Nuvole: Molto nuvoloso
Visibilità: 10 km
Dettaglio nuvole: Few Clouds 610 m
Molto nuvoloso 1067 m
2024/04/22 20:50 LIPX 222050Z 27005KT 230V300 9999 -RA FEW020 BKN035 06/05 Q1013
LIPO - Brescia/Montichiari, Italy
Distanza dalla stazione: NO 38km
Dati ricevuti: Mon, 22-Apr-2024 22:50
Pioviggine, Coperto
Pioviggine, Coperto
 Vento da SO
Vento: SO 9 km/h
Temperatura: 5°C
Temperatura del Vento: 3°C
P.to Rugiada: 5°C
Umidità: 100%
Barometro: 1013 hPa
Sommario: Pioviggine
Nuvole: Coperto
Visibilità: 10 km
Dettaglio nuvole: Coperto 792 m
2024/04/22 20:50 LIPO 222050Z AUTO 23005KT 9999 -RA OVC026/// 05/05 Q1013
 
LIPL - Ghedi (it-Afb), Italy
Distanza dalla stazione: NO 42km
Dati ricevuti: Mon, 22-Apr-2024 22:55
Pioviggine, Mist, Parz. nuvoloso
Pioviggine, Mist, Parz. nuvoloso
 Vento da OSO
Vento: OSO 7 km/h
Temperatura: 6°C
Temperatura del Vento: 4°C
P.to Rugiada: 6°C
Umidità: 100%
Barometro: 1012 hPa
Sommario: Pioviggine, Mist
Nuvole: Parz. nuvoloso
Visibilità: 5 km
Dettaglio nuvole: Few Clouds 183 m
Parz. nuvoloso 610 m
2024/04/22 20:55 LIPL 222055Z 25004KT 5000 -RA BR FEW006 SCT020 06/06 Q1012
LIMP - Parma, Italy
Distanza dalla stazione: SO 49km
Dati ricevuti: Mon, 22-Apr-2024 22:50
Pioggia, Nuvoloso
Pioggia, Nuvoloso
 Vento da N
Vento: N 9 km/h
Temperatura: 5°C
Temperatura del Vento: 3°C
P.to Rugiada: 5°C
Umidità: 100%
Barometro: 1013 hPa
Sommario: Pioggia
Nuvole: Molto nuvoloso
Visibilità: 2 km
Dettaglio nuvole: Molto nuvoloso 305 m
2024/04/22 20:50 LIMP 222050Z 01005KT 310V100 2000 RA BKN010 05/05 Q1013
 
LIMS - Piacenza (it-Afb, Italy
Distanza dalla stazione: OSO 81km
Dati ricevuti: Mon, 22-Apr-2024 19:55
DATI Obsoleti
Pioviggine, Mist, Nuvoloso
Pioviggine, Mist, Nuvoloso
 Vento da ENE
Vento: ENE 9 km/h
Temperatura: 6°C
Temperatura del Vento: 4°C
P.to Rugiada: 6°C
Umidità: 100%
Barometro: 1012 hPa
Sommario: Pioviggine, Mist
Nuvole: Molto nuvoloso
Visibilità: 4 km
Dettaglio nuvole: Parz. nuvoloso 152 m
Molto nuvoloso 549 m
2024/04/22 17:55 LIMS 221755Z 07005KT 040V110 3500 -RA BR SCT005 BKN018 06/06 Q1012
LIPF - Ferrara (aut), Italy
Distanza dalla stazione: ESE 84km
Dati ricevuti: Mon, 22-Apr-2024 19:55
DATI Obsoleti
Pioviggine, Parz. nuvoloso
Pioviggine, Parz. nuvoloso
 Vento da SSE
Vento: SSE 13 km/h
Temperatura: 7°C
Temperatura del Vento: 5°C
P.to Rugiada: 7°C
Umidità: 100%
Barometro: 1011 hPa
Sommario: Pioviggine
Nuvole: Parz. nuvoloso
Visibilità: 10 km
Dettaglio nuvole: Molto nuvoloso 305 m
Parz. nuvoloso 2134 m
2024/04/22 17:55 LIPF 221755Z 16007KT 9999 -RA BKN010 SCT070 07/07 Q1011
 
LIPE - Bologna/Borgo (a, Italy
Distanza dalla stazione: SE 88km
Dati ricevuti: Mon, 22-Apr-2024 22:50
Pioviggine, Nuvoloso
Pioviggine, Nuvoloso
 Vento da O
Vento: O 15 km/h
Temperatura: 6°C
Temperatura del Vento: 3°C
P.to Rugiada: 6°C
Umidità: 100%
Barometro: 1012 hPa
Sommario: Pioviggine
Nuvole: Molto nuvoloso
Visibilità: 5 km
Dettaglio nuvole: Parz. nuvoloso 91 m
Molto nuvoloso 305 m
2024/04/22 20:50 LIPE 222050Z 28008KT 5000 -RA SCT003 BKN010 06/06 Q1012
LIPU - Padova (civ/It-A, Italy
Distanza dalla stazione: ENE 93km
Dati ricevuti: Sun, 21-Apr-2024 15:50
DATI Obsoleti
Pioggia, Nuvoloso
Pioggia, Nuvoloso
 Vento da NNO
Vento: NNO 15 km/h
Temperatura: 8°C
Temperatura del Vento: 5°C
P.to Rugiada: 5°C
Umidità: 82%
Barometro: 1015 hPa
Sommario: Pioggia
Nuvole: Molto nuvoloso
Visibilità: 10 km
Dettaglio nuvole: Molto nuvoloso 457 m
2024/04/21 13:50 LIPU 211350Z 34008KT 280V010 9999 RA BKN015 08/05 Q1015
 
LIME - Bergamo/Orio Ser, Italy
Distanza dalla stazione: NO 95km
Dati ricevuti: Mon, 22-Apr-2024 22:50
Pioviggine, Mist, Nuvoloso
Pioviggine, Mist, Nuvoloso
 Vento da SSO
Vento: SSO 9 km/h
Temperatura: 5°C
Temperatura del Vento: 3°C
P.to Rugiada: 5°C
Umidità: 100%
Barometro: 1012 hPa
Sommario: Pioviggine, Mist
Nuvole: Molto nuvoloso
Visibilità: 4 km
Dettaglio nuvole: Parz. nuvoloso 91 m
Molto nuvoloso 457 m
2024/04/22 20:50 LIME 222050Z 21005KT 4000 -RA BR SCT003 BKN015 05/05 Q1012 NOSIG
LIMT - Cisa Pass, Italy
Distanza dalla stazione: SO 103km
Dati ricevuti: Mon, 23-Sep-2019 13:55
DATI Obsoleti
Nebbia
Nebbia
 Vento da calmo
Vento: Calma
Temperatura: 10°C
P.to Rugiada: 10°C
Umidità: 100%
Barometro: 1014 hPa
Sommario: Nebbia
Visibilità: 0 km
2019/09/23 11:55 LIMT 231155Z 00000KT 0000 FG VV/// 10/10 Q1014 RMK MON INVIS VAL INVIS VIS MIN 0000
 
LIVC - Cimone Mountain, Italy
Distanza dalla stazione: S 108km
Dati ricevuti: Mon, 22-Apr-2024 22:55

 Vento da NO
Vento: NO 7 km/h
Temperatura: -3°C
Temperatura del Vento: -6°C
P.to Rugiada: -3°C
Umidità: 100%
Barometro: 1006 hPa
2024/04/22 20:55 LIVC 222055Z AUTO 32004KT //// M03/M03 Q1006
LIVP - Paganella Mounta, Italy
Distanza dalla stazione: NNE 112km
Dati ricevuti: Mon, 22-Apr-2024 22:55
Light snow, Freezing, Nebbia
Light snow, Freezing, Nebbia
 Vento da N
Vento: N 30 km/h
Temperatura: -7°C
Temperatura del Vento: -16°C
P.to Rugiada: -7°C
Umidità: 100%
Barometro: 1006 hPa
Sommario: Light snow, Freezing, Nebbia
Visibilità: 0 km
2024/04/22 20:55 LIVP 222055Z 36016KT 0000 -SN FZFG VV/// M07/M07 Q1006
 
LIML - Milano/Linate, Italy
Distanza dalla stazione: ONO 115km
Dati ricevuti: Mon, 22-Apr-2024 22:50
Pioviggine, Parz. nuvoloso
Pioviggine, Parz. nuvoloso
 Vento da SSO
Vento: SSO 6 km/h
Temperatura: 5°C
P.to Rugiada: 5°C
Umidità: 100%
Barometro: 1013 hPa
Sommario: Pioviggine
Nuvole: Parz. nuvoloso
Visibilità: 10 km
Dettaglio nuvole: Few Clouds 305 m
Parz. nuvoloso 914 m
2024/04/22 20:50 LIML 222050Z 21003KT 9999 -RA FEW010 SCT030 05/05 Q1013 NOSIG
LIPS - Istrana (it-Afb), Italy
Distanza dalla stazione: ENE 123km
Dati ricevuti: Mon, 22-Apr-2024 22:55
Light drizzle, Nuvoloso
Light drizzle, Nuvoloso
 Vento da ENE
Vento: ENE 26 km/h
Temperatura: 6°C
Temperatura del Vento: 2°C
P.to Rugiada: 4°C
Umidità: 87%
Barometro: 1013 hPa
Sommario: Light Drizzle
Nuvole: Molto nuvoloso
Visibilità: 8 km
Dettaglio nuvole: Few Clouds 305 m
Molto nuvoloso 914 m
2024/04/22 20:55 LIPS 222055Z 06014KT 8000 -DZ FEW010 BKN030 06/04 Q1013
 
LIPH - Treviso(Civ/It-A, Italy
Distanza dalla stazione: ENE 127km
Dati ricevuti: Mon, 22-Apr-2024 22:50
Molto nuvoloso
Molto nuvoloso
 Vento da NE
Vento: NE 28 km/h
Temperatura: 7°C
Temperatura del Vento: 3°C
P.to Rugiada: 4°C
Umidità: 81%
Barometro: 1013 hPa
Nuvole: Molto nuvoloso
Visibilità: 10 km
Dettaglio nuvole: Molto nuvoloso 914 m
2024/04/22 20:50 LIPH 222050Z 05015KT 9999 BKN030 07/04 Q1013
LIPZ - Venezia/Tessera, Italy
Distanza dalla stazione: ENE 133km
Dati ricevuti: Mon, 22-Apr-2024 22:50
Molto nuvoloso
Molto nuvoloso
 Vento da NE
Vento: NE 35 km/h
Temperatura: 6°C
Temperatura del Vento: 1°C
P.to Rugiada: 5°C
Umidità: 93%
Barometro: 1012 hPa
Nuvole: Molto nuvoloso
Visibilità: 10 km
Dettaglio nuvole: Molto nuvoloso 610 m
2024/04/22 20:50 LIPZ 222050Z 04019KT 9999 BKN020 06/05 Q1012 NOSIG
 
LIQW - Sarzana/Luni, Italy
Distanza dalla stazione: SSO 135km
Dati ricevuti: Mon, 22-Apr-2024 15:55
DATI Obsoleti
Few Clouds
Few Clouds
 Vento da N
Vento: N 20 km/h
Temperatura: 12°C
P.to Rugiada: 8°C
Umidità: 77%
Barometro: 1007 hPa
Nuvole: Few Clouds
Visibilità: 10 km
Dettaglio nuvole: Few Clouds 610 m
2024/04/22 13:55 LIQW 221355Z 36011KT 9999 FEW020 12/08 Q1007
LIVR - Rolle Pass, Italy
Distanza dalla stazione: NE 150km
Dati ricevuti: Mon, 22-Apr-2024 18:55
DATI Obsoleti
Light snow, Freezing, Nebbia
Light snow, Freezing, Nebbia
 Vento da NE
Vento: NE 19 km/h
Temperatura: -5°C
Temperatura del Vento: -12°C
P.to Rugiada: -7°C
Umidità: 86%
Barometro: 1007 hPa
Sommario: Light snow, Freezing, Nebbia
Visibilità: 0 km
2024/04/22 16:55 LIVR 221655Z 04010KT 0150 -SN FZFG VV/// M05/M07 Q1007
 
LIPC - Cervia (it-Afb), Italy
Dati ricevuti: Mon, 22-Apr-2024 22:55
Pioviggine, Nuvoloso
Pioviggine, Nuvoloso
 Vento da O
Vento: O 26 km/h
Temperatura: 8°C
Temperatura del Vento: 4°C
P.to Rugiada: 8°C
Umidità: 100%
Barometro: 1011 hPa
Sommario: Pioviggine
Nuvole: Molto nuvoloso
Visibilità: 10 km
Dettaglio nuvole: Parz. nuvoloso 152 m
Molto nuvoloso 914 m
2024/04/22 20:55 LIPC 222055Z 26014KT 9999 -RA SCT005 BKN030 08/08 Q1011
LIPR - Rimini (civ/It-A, Italy
Dati ricevuti: Mon, 22-Apr-2024 22:50
Parz. nuvoloso
Parz. nuvoloso
 Vento da ONO
Vento: ONO 11 km/h
Temperatura: 9°C
Temperatura del Vento: 7°C
P.to Rugiada: 7°C
Umidità: 87%
Barometro: 1010 hPa
Nuvole: Parz. nuvoloso
Visibilità: 10 km
Dettaglio nuvole: Few Clouds 914 m
Parz. nuvoloso 1829 m
2024/04/22 20:50 LIPR 222050Z 30006KT 9999 FEW030 SCT060 09/07 Q1010






METEO PILLOLE
Maggior quantità di pioggia caduta in 48 ore
Cherrapunji (1313 m) - India
Tra il 15 e 16 giugno 1995 caddero 2493mm di pioggia.

Do NOT follow this link or you will be banned from the site!